• Join FlightAware (Why Join?)
  • Login
  • US Flag 
06:29PM EDT


 

Airport Tracker/Info


-or-


 

Live Flight TrackerFlight Track Log ✈ N4202L ✈ 12-May-2013 ✈ KAOO - KFCI

Flight Track Log - Related Links

Times and Time Zones

All times are in EDT time to prevent confusion due to time zone crossing. See the N4202L flight status page for this flight to view local times or setup timezone preferences in your user account.

Time Position Orientation Groundspeed Altitude Reporting Facility
EDT Latitude Longitude Course Direction KTS MPH feet Rate Location/Type
06:34PM 40.0958 -78.2653 174° South 124 143 4,600  Level Cleveland Center
06:35PM 40.0644 -78.2608 174° South 125 144 4,500  Descending Cleveland Center
06:37PM 39.9889 -78.2372 167° South 145 167 4,600  Climbing Washington Center
06:38PM 39.9536 -78.2278 168° South 145 167 4,500  Descending Washington Center
06:39PM 39.9206 -78.2156 164° South 140 161 4,600  Climbing Washington Center
06:40PM 39.8853 -78.2061 168° South 140 161 4,600 -60 Level Washington Center
06:41PM 39.8481 -78.1942 166° South 140 161 4,500  Descending Washington Center
06:42PM 39.8150 -78.1847 168° South 135 155 4,600  Climbing Washington Center
06:43PM 39.7797 -78.1753 168° South 135 155 4,600  Level Washington Center
06:44PM 39.7444 -78.1661 169° South 135 155 4,600 -60 Level Washington Center
06:45PM 39.7094 -78.1567 168° South 135 155 4,500  Descending Washington Center
06:46PM 39.6761 -78.1500 171° South 135 155 4,600  Climbing Washington Center
06:47PM 39.6411 -78.1381 165° South 135 155 4,500 -60 Descending Washington Center
06:48PM 39.6058 -78.1286 168° South 130 150 4,500  Level Washington Center
06:49PM 39.5725 -78.1194 168° South 130 150 4,500  Level Washington Center
06:50PM 39.5375 -78.1075 165° South 125 144 4,500  Level Washington Center
06:51PM 39.5042 -78.0983 168° South 125 144 4,500  Level Washington Center
06:52PM 39.4689 -78.0917 172° South 125 144 4,600  Climbing Washington Center
06:53PM 39.4358 -78.0825 168° South 125 144 4,600  Level Washington Center
06:54PM 39.3986 -78.0731 169° South 125 144 4,600  Level Washington Center
06:55PM 39.3633 -78.0639 169° South 125 144 4,600  Level Washington Center
06:56PM 39.3300 -78.0547 168° South 125 144 4,600  Level Washington Center
06:57PM 39.2950 -78.0428 165° South 125 144 4,600 -60 Level Washington Center
06:59PM 39.2167 -78.0167 166° South 128 147 4,500 -60 Descending Potomac TRACON
07:00PM 39.1833 -78.0167 180° South 127 146 4,500  Level Potomac TRACON
07:01PM 39.1500 -78.0000 159° South 131 151 4,600  Climbing Potomac TRACON
07:02PM 39.1167 -78.0000 180° South 131 151 4,600  Level Potomac TRACON
07:03PM 39.0833 -77.9833 159° South 133 153 4,600 -60 Level Potomac TRACON
07:04PM 39.0500 -77.9833 180° South 135 155 4,500  Descending Potomac TRACON
07:05PM 39.0167 -77.9667 159° South 130 150 4,600  Climbing Potomac TRACON
07:06PM 38.9667 -77.9500 165° South 132 152 4,500 -60 Descending Potomac TRACON
07:07PM 38.9333 -77.9500 180° South 127 146 4,500  Level Potomac TRACON
07:08PM 38.9000 -77.9333 159° South 136 157 4,600 60 Climbing Potomac TRACON
07:09PM 38.8667 -77.9167 159° South 132 152 4,700 -60 Climbing Potomac TRACON
07:10PM 38.8333 -77.9167 180° South 130 150 4,500 -60 Descending Potomac TRACON
07:11PM 38.8000 -77.9000 159° South 136 157 4,600  Climbing Potomac TRACON
07:12PM 38.7500 -77.9000 180° South 133 153 4,600  Level Potomac TRACON
07:13PM 38.7167 -77.8833 159° South 132 152 4,600  Level Potomac TRACON
07:14PM 38.6833 -77.8833 180° South 130 150 4,600 -60 Level Potomac TRACON
07:15PM 38.6500 -77.8667 159° South 133 153 4,500  Descending Potomac TRACON
07:16PM 38.6167 -77.8667 180° South 128 147 4,600  Climbing Potomac TRACON
07:17PM 38.5833 -77.8500 159° South 132 152 4,600 -60 Level Potomac TRACON
07:18PM 38.5500 -77.8500 180° South 130 150 4,500 -60 Descending Potomac TRACON
07:19PM 38.5167 -77.8333 159° South 129 148 4,500  Level Potomac TRACON
07:20PM 38.4833 -77.8167 159° South 133 153 4,600  Climbing Potomac TRACON
07:21PM 38.4500 -77.8167 180° South 137 158 4,600 -60 Level Potomac TRACON
07:22PM 38.4000 -77.8000 165° South 135 155 4,500  Descending Potomac TRACON
07:23PM 38.3667 -77.7833 159° South 135 155 4,600  Climbing Potomac TRACON
07:24PM 38.3333 -77.7833 180° South 137 158 4,600  Level Potomac TRACON
07:25PM 38.3000 -77.7667 159° South 135 155 4,600  Level Potomac TRACON
07:26PM 38.2667 -77.7667 180° South 130 150 4,600  Level Potomac TRACON
07:27PM 38.2167 -77.7500 165° South 135 155 4,600  Level Potomac TRACON
07:28PM 38.1833 -77.7333 159° South 153 176 4,600  Level Potomac TRACON
07:29PM 38.1500 -77.7333 180° South 134 154 4,600  Level Potomac TRACON
07:30PM 38.1167 -77.7167 159° South 137 158 4,600  Level Potomac TRACON
07:31PM 38.0667 -77.7000 165° South 143 165 4,600  Level Potomac TRACON
07:32PM 38.0333 -77.7000 180° South 144 166 4,600  Level Potomac TRACON
07:33PM 38.0000 -77.6833 158° South 145 167 4,700  Climbing Potomac TRACON
07:34PM 37.9667 -77.6833 180° South 140 161 4,600 -120 Descending Potomac TRACON
07:35PM 37.9167 -77.6667 165° South 141 162 4,500  Descending Potomac TRACON
07:36PM 37.8833 -77.6500 158° South 140 161 4,600  Climbing Potomac TRACON
07:37PM 37.8500 -77.6500 180° South 145 167 4,600  Level Potomac TRACON
07:38PM 37.8167 -77.6333 158° South 143 165 4,600  Level Potomac TRACON
07:39PM 37.7833 -77.6167 158° South 147 169 4,600 -60 Level Potomac TRACON
07:40PM 37.7333 -77.6167 180° South 138 159 4,500 -60 Descending Potomac TRACON
07:41PM 37.7000 -77.6000 158° South 137 158 4,500 -300 Level Potomac TRACON
07:42PM 37.6667 -77.6000 180° South 138 159 4,000 -480 Descending Potomac TRACON
07:43PM 37.6167 -77.5833 165° South 138 159 3,500 -540 Descending Potomac TRACON
07:44PM 37.5833 -77.5667 158° South 137 158 3,000 -600 Descending Potomac TRACON